Time;durP1;ratioP1;P1;durP2;ratioP2;P2;SDS_P1;SDS_P2;PMS_P1;PMS_P2;Temp;Humidity;BMP_temperature;BMP_pressure;BME280_temperature;BME280_humidity;BME280_pressure;Samples;Min_cycle;Max_cycle;Signal;HPM_P1;HPM_P2
2023/04/21 00:02:07;;;;;;;15.02;13.50;;;10.40;99.90;;;;;;5072978;28;20233;-84
2023/04/21 00:04:35;;;;;;;14.50;13.02;;;10.30;99.90;;;;;;5072985;28;20254;-84
2023/04/21 00:07:04;;;;;;;14.20;12.60;;;10.30;99.90;;;;;;5073173;28;20197;-84
2023/04/21 00:09:33;;;;;;;15.43;13.73;;;10.30;99.90;;;;;;5072995;28;20208;-83
2023/04/21 00:12:06;;;;;;;17.40;13.00;;;10.30;99.90;;;;;;5072836;28;20308;-84
2023/04/21 00:14:34;;;;;;;15.10;13.10;;;10.20;99.90;;;;;;5072673;28;20219;-84
2023/04/21 00:17:02;;;;;;;19.25;15.48;;;10.30;99.90;;;;;;5072947;28;20223;-84
2023/04/21 00:19:34;;;;;;;15.15;13.68;;;10.30;99.90;;;;;;5073164;28;20208;-83
2023/04/21 00:22:13;;;;;;;22.38;14.13;;;10.20;99.90;;;;;;5072464;28;20307;-84
2023/04/21 00:24:42;;;;;;;16.02;14.23;;;10.20;99.90;;;;;;5072780;28;20200;-84
2023/04/21 00:27:12;;;;;;;15.38;13.77;;;10.20;99.90;;;;;;5072870;28;20300;-84
2023/04/21 00:29:40;;;;;;;20.42;13.88;;;10.20;99.90;;;;;;5072601;28;20201;-84
2023/04/21 00:32:09;;;;;;;18.70;13.98;;;10.20;99.90;;;;;;5073171;28;20256;-84
2023/04/21 00:34:38;;;;;;;16.88;13.55;;;10.10;99.90;;;;;;5072333;28;20225;-84
2023/04/21 00:37:06;;;;;;;15.40;12.77;;;10.10;99.90;;;;;;5072835;28;20224;-84
2023/04/21 00:39:34;;;;;;;17.58;14.05;;;10.10;99.90;;;;;;5072502;28;20212;-84
2023/04/21 00:42:03;;;;;;;15.02;13.48;;;10.10;99.90;;;;;;5072097;28;20225;-83
2023/04/21 00:44:33;;;;;;;14.85;13.32;;;10.00;99.90;;;;;;5072523;28;20228;-84
2023/04/21 00:47:03;;;;;;;15.27;13.70;;;10.00;99.90;;;;;;5072779;28;20197;-83
2023/04/21 00:49:34;;;;;;;15.68;14.05;;;10.00;99.90;;;;;;5072678;28;20205;-84
2023/04/21 00:52:07;;;;;;;16.92;14.80;;;9.90;99.90;;;;;;5072242;28;20248;-83
2023/04/21 00:54:36;;;;;;;16.35;13.77;;;10.00;99.90;;;;;;5072152;28;20309;-83
2023/04/21 00:57:06;;;;;;;14.68;13.25;;;10.00;99.90;;;;;;5072860;28;20240;-83
2023/04/21 00:59:36;;;;;;;13.85;12.45;;;9.90;99.90;;;;;;5072683;28;20211;-84
2023/04/21 01:02:05;;;;;;;15.05;13.55;;;9.90;99.90;;;;;;5072113;28;20224;-84
2023/04/21 01:04:37;;;;;;;15.60;14.00;;;9.90;99.90;;;;;;5072420;28;20201;-83
2023/04/21 01:07:08;;;;;;;15.60;13.93;;;9.90;99.90;;;;;;5072287;28;20212;-83
2023/04/21 01:09:37;;;;;;;12.55;11.35;;;9.80;99.90;;;;;;5072924;28;20261;-83
2023/04/21 01:12:08;;;;;;;12.48;11.18;;;9.80;99.90;;;;;;5072234;28;20244;-83
2023/04/21 01:14:40;;;;;;;12.90;11.05;;;9.80;99.90;;;;;;5072054;28;20311;-84
2023/04/21 01:17:09;;;;;;;12.23;11.07;;;9.70;99.90;;;;;;5072536;28;20201;-83
2023/04/21 01:19:42;;;;;;;13.40;12.00;;;9.70;99.90;;;;;;5071865;28;20205;-84
2023/04/21 01:22:15;;;;;;;15.73;12.82;;;9.70;99.90;;;;;;5072188;28;20278;-84
2023/04/21 01:24:45;;;;;;;15.20;10.52;;;9.70;99.90;;;;;;5072227;28;20488;-83
2023/04/21 01:27:17;;;;;;;12.02;10.93;;;9.70;99.90;;;;;;5072307;28;20213;-84
2023/04/21 01:29:48;;;;;;;12.15;9.85;;;9.70;99.90;;;;;;5072472;28;20323;-84
2023/04/21 01:32:22;;;;;;;10.98;9.70;;;9.70;99.90;;;;;;5071840;28;20239;-84
2023/04/21 01:34:53;;;;;;;13.57;10.90;;;9.70;99.90;;;;;;5072349;28;20316;-84
2023/04/21 01:37:26;;;;;;;11.48;10.27;;;9.70;99.90;;;;;;5072282;28;20270;-83
2023/04/21 01:39:56;;;;;;;14.82;10.77;;;9.70;99.90;;;;;;5072141;28;20232;-84
2023/04/21 01:42:27;;;;;;;14.77;11.70;;;9.70;99.90;;;;;;5071729;28;20221;-84
2023/04/21 01:44:55;;;;;;;13.95;10.77;;;9.80;99.90;;;;;;5072065;28;20216;-83
2023/04/21 01:47:25;;;;;;;13.45;12.02;;;9.80;99.90;;;;;;5071926;28;20197;-84
2023/04/21 01:49:58;;;;;;;11.88;10.65;;;9.80;99.90;;;;;;5071913;28;20220;-84
2023/04/21 01:52:29;;;;;;;11.77;10.57;;;9.90;99.90;;;;;;5071623;28;20225;-84
2023/04/21 01:54:58;;;;;;;12.25;11.00;;;9.90;99.90;;;;;;5072174;28;20229;-83
2023/04/21 01:57:26;;;;;;;13.23;11.82;;;9.90;99.90;;;;;;5075573;28;20209;-84
2023/04/21 01:59:54;;;;;;;12.43;11.32;;;9.90;99.90;;;;;;5075625;28;20270;-84
2023/04/21 02:02:23;;;;;;;14.98;13.43;;;9.90;99.90;;;;;;5075044;28;20248;-84
2023/04/21 02:04:51;;;;;;;15.10;13.52;;;10.00;99.90;;;;;;5075925;28;20223;-84
2023/04/21 02:07:20;;;;;;;20.23;16.38;;;10.00;99.90;;;;;;5075473;28;20296;-84
2023/04/21 02:09:50;;;;;;;15.05;13.65;;;10.00;99.90;;;;;;5075268;28;20212;-84
2023/04/21 02:12:20;;;;;;;18.85;14.82;;;10.10;99.90;;;;;;5075362;28;20232;-84
2023/04/21 02:14:48;;;;;;;14.57;13.00;;;10.10;99.90;;;;;;5075428;28;20311;-83
2023/04/21 02:17:17;;;;;;;15.70;13.13;;;10.00;99.90;;;;;;5075548;28;20247;-83
2023/04/21 02:19:46;;;;;;;18.08;13.25;;;10.10;99.90;;;;;;5075149;28;20213;-83
2023/04/21 02:22:14;;;;;;;18.60;14.48;;;10.10;99.90;;;;;;5075087;28;20317;-83
2023/04/21 02:24:43;;;;;;;14.85;13.30;;;10.00;99.90;;;;;;5074915;28;20209;-83
2023/04/21 02:27:14;;;;;;;18.67;14.45;;;10.00;99.90;;;;;;5075414;28;20208;-83
2023/04/21 02:29:43;;;;;;;14.63;13.23;;;10.00;99.90;;;;;;5075170;28;20197;-85
2023/04/21 02:32:17;;;;;;;15.55;13.95;;;10.00;99.90;;;;;;5074721;28;20283;-85
2023/04/21 02:34:53;;;;;;;15.48;13.93;;;10.00;99.90;;;;;;5075176;28;20216;-84
2023/04/21 02:37:21;;;;;;;15.48;13.88;;;10.00;99.90;;;;;;5074904;28;20224;-84
2023/04/21 02:39:53;;;;;;;18.20;13.93;;;10.00;99.90;;;;;;5074831;28;20209;-85
2023/04/21 02:42:22;;;;;;;17.65;14.25;;;9.90;99.90;;;;;;5074662;28;20225;-84
2023/04/21 02:44:51;;;;;;;16.58;14.80;;;9.90;99.90;;;;;;5074767;28;20205;-85
2023/04/21 02:47:19;;;;;;;14.45;13.05;;;9.90;99.90;;;;;;5074880;28;20239;-84
2023/04/21 02:49:50;;;;;;;21.38;15.40;;;9.80;99.90;;;;;;5074033;28;20207;-85
2023/04/21 02:52:18;;;;;;;15.48;13.98;;;9.80;99.90;;;;;;5074599;28;20288;-83
2023/04/21 02:54:46;;;;;;;16.08;14.38;;;9.80;99.90;;;;;;5074640;28;20217;-83
2023/04/21 02:57:15;;;;;;;16.70;14.85;;;9.70;99.90;;;;;;5074664;28;20213;-85
2023/04/21 02:59:45;;;;;;;21.48;14.15;;;9.70;99.90;;;;;;5074460;28;20209;-84
2023/04/21 03:02:13;;;;;;;15.48;13.95;;;9.70;99.90;;;;;;5074048;28;20229;-84
2023/04/21 03:04:41;;;;;;;15.43;13.77;;;9.60;99.90;;;;;;5074498;28;20208;-84
2023/04/21 03:07:13;;;;;;;15.10;13.70;;;9.60;99.90;;;;;;5073899;28;20223;-83
2023/04/21 03:09:42;;;;;;;15.85;14.25;;;9.60;99.90;;;;;;5073955;28;20225;-83
2023/04/21 03:12:11;;;;;;;19.10;16.02;;;9.50;99.90;;;;;;5073781;28;20221;-83
2023/04/21 03:14:41;;;;;;;17.52;14.77;;;9.50;99.90;;;;;;5074477;28;20276;-82
2023/04/21 03:17:16;;;;;;;18.63;14.32;;;9.50;99.90;;;;;;5074208;28;20197;-83
2023/04/21 03:19:47;;;;;;;17.85;14.30;;;9.50;99.90;;;;;;5074119;28;20205;-84
2023/04/21 03:22:15;;;;;;;16.48;13.82;;;9.50;99.90;;;;;;5073581;28;20260;-83
2023/04/21 03:24:44;;;;;;;15.13;13.60;;;9.40;99.90;;;;;;5074154;28;20304;-83
2023/04/21 03:27:13;;;;;;;14.25;12.95;;;9.40;99.90;;;;;;5074198;28;20287;-82
2023/04/21 03:29:41;;;;;;;13.68;12.05;;;9.40;99.90;;;;;;5073856;28;20204;-83
2023/04/21 03:32:10;;;;;;;12.35;11.15;;;9.30;99.90;;;;;;5073208;28;20293;-84
2023/04/21 03:34:44;;;;;;;12.15;10.90;;;9.30;99.90;;;;;;5073504;28;20202;-82
2023/04/21 03:37:15;;;;;;;11.18;10.13;;;9.30;99.90;;;;;;5073813;28;20295;-82
2023/04/21 03:39:43;;;;;;;12.70;11.45;;;9.20;99.90;;;;;;5073661;28;20209;-82
2023/04/21 03:42:12;;;;;;;17.52;10.32;;;9.10;99.90;;;;;;5073495;28;20260;-82
2023/04/21 03:44:40;;;;;;;12.00;10.80;;;9.10;99.90;;;;;;5073668;28;20212;-82
2023/04/21 03:47:08;;;;;;;11.43;10.32;;;9.10;99.90;;;;;;5073412;28;20213;-82
2023/04/21 03:49:37;;;;;;;11.52;10.35;;;9.00;99.90;;;;;;5073200;28;20220;-83
2023/04/21 03:52:07;;;;;;;11.93;10.40;;;9.00;99.90;;;;;;5073014;28;20235;-83
2023/04/21 03:54:35;;;;;;;12.35;10.93;;;9.00;99.90;;;;;;5073726;28;20258;-83
2023/04/21 03:57:04;;;;;;;14.65;10.95;;;9.00;99.90;;;;;;5073116;28;20248;-84
2023/04/21 03:59:32;;;;;;;11.35;10.27;;;9.00;99.90;;;;;;5073174;28;20231;-83
2023/04/21 04:02:00;;;;;;;11.48;10.38;;;8.90;99.90;;;;;;5072821;28;20259;-83
2023/04/21 04:04:29;;;;;;;14.02;10.70;;;8.90;99.90;;;;;;5073238;28;20205;-83
2023/04/21 04:06:58;;;;;;;12.38;11.18;;;8.90;99.90;;;;;;5073409;28;20197;-83
2023/04/21 04:09:28;;;;;;;12.00;10.90;;;8.90;99.90;;;;;;5073116;28;20216;-83
2023/04/21 04:11:56;;;;;;;13.32;11.82;;;8.90;99.90;;;;;;5073032;28;20213;-83
2023/04/21 04:14:25;;;;;;;12.95;11.70;;;8.80;99.90;;;;;;5072770;28;20258;-83
2023/04/21 04:16:53;;;;;;;13.15;11.73;;;8.80;99.90;;;;;;5072437;28;20252;-82
2023/04/21 04:19:21;;;;;;;13.93;12.50;;;8.80;99.90;;;;;;5071800;28;20208;-83
2023/04/21 04:21:50;;;;;;;14.75;12.02;;;8.80;99.90;;;;;;5072332;28;20209;-83
2023/04/21 04:24:18;;;;;;;13.88;12.48;;;8.80;99.90;;;;;;5072934;28;20248;-82
2023/04/21 04:26:48;;;;;;;12.63;11.52;;;8.80;99.90;;;;;;5072916;28;20263;-82
2023/04/21 04:29:17;;;;;;;16.58;14.65;;;8.80;99.90;;;;;;5072739;28;20201;-82
2023/04/21 04:31:46;;;;;;;14.48;13.02;;;8.80;99.90;;;;;;5072620;28;20212;-84
2023/04/21 04:34:15;;;;;;;15.10;13.60;;;8.80;99.90;;;;;;5073041;28;20205;-83
2023/04/21 04:36:43;;;;;;;16.30;14.00;;;8.80;99.90;;;;;;5072784;28;20316;-83
2023/04/21 04:39:16;;;;;;;13.30;11.98;;;8.80;99.90;;;;;;5072641;28;20205;-84
2023/04/21 04:41:53;;;;;;;15.25;12.82;;;8.80;99.90;;;;;;5072350;28;20212;-84
2023/04/21 04:44:22;;;;;;;14.32;12.93;;;8.80;99.90;;;;;;5072770;28;20296;-82
2023/04/21 04:46:51;;;;;;;13.95;12.55;;;8.80;99.90;;;;;;5072478;28;20284;-83
2023/04/21 04:49:22;;;;;;;15.75;14.13;;;8.90;99.90;;;;;;5072822;28;20201;-82
2023/04/21 04:51:51;;;;;;;15.68;14.00;;;8.90;99.90;;;;;;5072286;28;20283;-85
2023/04/21 04:54:19;;;;;;;13.93;12.40;;;8.90;99.90;;;;;;5072471;28;20208;-83
2023/04/21 04:56:50;;;;;;;13.88;12.20;;;8.90;99.90;;;;;;5071964;28;20221;-83
2023/04/21 04:59:18;;;;;;;14.32;12.90;;;9.00;99.90;;;;;;5072518;28;20247;-83
2023/04/21 05:01:58;;;;;;;15.38;13.75;;;9.00;99.90;;;;;;5072322;28;20224;-84
2023/04/21 05:04:26;;;;;;;18.48;13.48;;;9.00;99.90;;;;;;5072738;28;20215;-84
2023/04/21 05:06:55;;;;;;;16.38;14.48;;;9.10;99.90;;;;;;5072315;28;20240;-84
2023/04/21 05:09:29;;;;;;;16.20;14.60;;;9.10;99.90;;;;;;5072271;28;20304;-84
2023/04/21 05:12:13;;;;;;;19.27;13.82;;;9.20;99.90;;;;;;5072372;28;20224;-84
2023/04/21 05:14:41;;;;;;;21.05;17.35;;;9.20;99.90;;;;;;5072281;28;20209;-84
2023/04/21 05:17:10;;;;;;;19.85;17.75;;;9.20;99.90;;;;;;5071921;28;20224;-84
2023/04/21 05:19:39;;;;;;;19.08;17.02;;;9.30;99.90;;;;;;5072591;28;20220;-84
2023/04/21 05:22:13;;;;;;;18.40;16.60;;;9.30;99.90;;;;;;5071994;28;20233;-84
2023/04/21 05:24:50;;;;;;;20.83;16.48;;;9.40;99.90;;;;;;5072466;28;20209;-83
2023/04/21 05:27:21;;;;;;;18.25;16.48;;;9.50;99.90;;;;;;5072183;28;20196;-84
2023/04/21 05:29:50;;;;;;;19.50;17.08;;;9.50;99.90;;;;;;5072487;28;20237;-84
2023/04/21 05:32:20;;;;;;;17.95;16.33;;;9.60;99.90;;;;;;5075798;28;20235;-84
2023/04/21 05:34:49;;;;;;;20.65;16.92;;;9.60;99.90;;;;;;5076123;28;20212;-84
2023/04/21 05:37:18;;;;;;;17.40;15.55;;;9.70;99.90;;;;;;5075853;28;20319;-85
2023/04/21 05:39:49;;;;;;;18.25;16.40;;;9.70;99.90;;;;;;5075863;28;20200;-84
2023/04/21 05:42:18;;;;;;;16.23;14.60;;;9.80;99.90;;;;;;5076087;28;20228;-84
2023/04/21 05:44:48;;;;;;;18.23;16.33;;;9.80;99.90;;;;;;5076098;28;20263;-82
2023/04/21 05:47:17;;;;;;;16.67;15.13;;;9.80;99.90;;;;;;5075806;28;20232;-83
2023/04/21 05:49:54;;;;;;;19.67;15.00;;;9.90;99.90;;;;;;5075538;28;20205;-83
2023/04/21 05:52:28;;;;;;;20.48;17.65;;;9.90;99.90;;;;;;5075202;28;20244;-83
2023/04/21 05:54:58;;;;;;;18.88;16.90;;;10.00;99.90;;;;;;5075826;28;20297;-83
2023/04/21 05:57:26;;;;;;;17.52;15.90;;;10.10;99.90;;;;;;5075312;28;20224;-84
2023/04/21 05:59:56;;;;;;;20.17;15.98;;;10.20;99.90;;;;;;5075567;28;20197;-83
2023/04/21 06:02:25;;;;;;;18.05;16.15;;;10.30;99.90;;;;;;5075249;28;20233;-83
2023/04/21 06:04:53;;;;;;;20.88;17.15;;;10.30;99.90;;;;;;5075253;28;20201;-84
2023/04/21 06:07:22;;;;;;;18.58;14.02;;;10.40;99.90;;;;;;5075236;28;20220;-83
2023/04/21 06:09:51;;;;;;;17.10;14.95;;;10.50;99.90;;;;;;5075619;28;20236;-84
2023/04/21 06:13:03;;;;;;;13.27;11.98;;;10.50;99.90;;;;;;5075119;28;20229;-84
2023/04/21 06:15:34;;;;;;;16.77;13.18;;;10.60;99.90;;;;;;5046399;28;20212;-84
2023/04/21 06:18:03;;;;;;;14.95;13.40;;;10.70;99.90;;;;;;5074983;28;20224;-84
2023/04/21 06:20:41;;;;;;;14.85;13.23;;;10.80;99.90;;;;;;5075430;28;20205;-83
2023/04/21 06:23:10;;;;;;;14.25;12.85;;;10.80;99.90;;;;;;5074644;28;20229;-84
2023/04/21 06:25:38;;;;;;;15.15;13.55;;;11.00;99.90;;;;;;5075388;28;20212;-84
2023/04/21 06:28:07;;;;;;;14.25;12.75;;;11.00;99.90;;;;;;5074892;28;20211;-83
2023/04/21 06:30:37;;;;;;;14.45;13.02;;;11.10;99.90;;;;;;5075175;28;20224;-84
2023/04/21 06:33:05;;;;;;;18.50;14.32;;;11.20;99.90;;;;;;5075006;28;20229;-84
2023/04/21 06:35:34;;;;;;;21.52;12.85;;;11.20;99.90;;;;;;5075027;28;20244;-83
2023/04/21 06:38:02;;;;;;;13.70;12.32;;;11.30;99.90;;;;;;5074630;28;20245;-83
2023/04/21 06:40:30;;;;;;;23.00;10.98;;;11.40;99.90;;;;;;5074620;28;20214;-83
2023/04/21 06:43:20;;;;;;;11.73;10.55;;;11.50;99.90;;;;;;5073583;28;20220;-84
2023/04/21 06:45:50;;;;;;;12.48;11.13;;;11.50;99.90;;;;;;5074740;28;20209;-84
2023/04/21 06:48:29;;;;;;;10.70;9.63;;;11.60;99.90;;;;;;5074954;28;20205;-83
2023/04/21 06:50:57;;;;;;;12.95;9.55;;;11.70;99.90;;;;;;5074593;28;20301;-84
2023/04/21 06:53:26;;;;;;;9.68;8.18;;;11.80;99.90;;;;;;5074531;28;20225;-84
2023/04/21 06:55:54;;;;;;;7.85;7.10;;;12.00;99.90;;;;;;5074678;28;20212;-84
2023/04/21 06:58:25;;;;;;;7.90;7.07;;;12.10;99.90;;;;;;5074464;28;20224;-84
2023/04/21 07:00:55;;;;;;;13.38;8.13;;;12.20;99.90;;;;;;5074607;28;20268;-83
2023/04/21 07:03:24;;;;;;;7.97;7.18;;;12.30;99.90;;;;;;5074045;28;20274;-84
2023/04/21 07:05:52;;;;;;;7.13;6.13;;;12.30;99.90;;;;;;5074498;28;20305;-84
2023/04/21 07:08:21;;;;;;;6.72;6.10;;;12.50;99.90;;;;;;5074288;28;20219;-83
2023/04/21 07:10:49;;;;;;;10.23;6.10;;;12.60;99.90;;;;;;5074110;28;20207;-83
2023/04/21 07:13:17;;;;;;;6.60;5.88;;;12.70;99.90;;;;;;5074040;28;20251;-83
2023/04/21 07:15:46;;;;;;;7.80;6.95;;;12.90;99.90;;;;;;5074596;28;20201;-83
2023/04/21 07:18:16;;;;;;;6.93;6.22;;;13.10;99.90;;;;;;5074105;28;20225;-83
2023/04/21 07:20:45;;;;;;;6.05;5.50;;;13.20;99.90;;;;;;5073717;28;20211;-83
2023/04/21 07:23:13;;;;;;;7.18;6.25;;;13.40;99.90;;;;;;5073410;28;20302;-82
2023/04/21 07:25:57;;;;;;;7.93;6.78;;;13.60;99.90;;;;;;5073773;28;20211;-84
2023/04/21 07:28:27;;;;;;;6.07;5.47;;;13.70;99.90;;;;;;5073645;28;20201;-84
2023/04/21 07:30:56;;;;;;;8.45;5.30;;;13.80;99.90;;;;;;5074159;28;20205;-80
2023/04/21 07:33:25;;;;;;;4.85;4.45;;;14.00;99.90;;;;;;5072519;28;20224;-80
2023/04/21 07:35:56;;;;;;;6.10;5.50;;;14.20;99.90;;;;;;5073852;28;20207;-80
2023/04/21 07:38:25;;;;;;;8.70;5.72;;;14.40;99.90;;;;;;5072300;28;20271;-81
2023/04/21 07:40:53;;;;;;;5.60;4.63;;;14.60;99.90;;;;;;5073251;28;20201;-80
2023/04/21 07:43:22;;;;;;;6.68;5.43;;;14.70;99.90;;;;;;5072757;28;20232;-80
2023/04/21 07:45:51;;;;;;;5.22;4.72;;;14.90;99.90;;;;;;5073290;28;20232;-81
2023/04/21 07:48:20;;;;;;;4.97;4.57;;;15.10;99.90;;;;;;5072797;28;20201;-81
2023/04/21 07:50:50;;;;;;;4.28;3.95;;;15.20;99.90;;;;;;5073086;28;20208;-80
2023/04/21 07:53:19;;;;;;;5.30;4.40;;;15.40;99.90;;;;;;5071539;28;20311;-81
2023/04/21 07:55:47;;;;;;;4.50;4.10;;;15.60;99.90;;;;;;5070679;28;20189;-81
2023/04/21 07:58:19;;;;;;;6.40;4.43;;;15.80;99.90;;;;;;5067912;28;20224;-81
2023/04/21 08:00:51;;;;;;;5.85;4.38;;;15.90;99.90;;;;;;5073190;28;20205;-80
2023/04/21 08:03:20;;;;;;;6.57;4.05;;;16.00;99.90;;;;;;5073102;28;20233;-80
2023/04/21 08:05:55;;;;;;;5.43;4.43;;;16.20;99.90;;;;;;5072769;28;20210;-81
2023/04/21 08:08:24;;;;;;;5.30;4.68;;;16.70;99.90;;;;;;5073180;28;20197;-81
2023/04/21 08:10:53;;;;;;;6.63;4.25;;;17.00;99.90;;;;;;5072852;28;20225;-81
2023/04/21 08:13:32;;;;;;;6.10;4.88;;;17.30;99.90;;;;;;5069985;28;20232;-81
2023/04/21 08:16:00;;;;;;;5.18;4.55;;;18.00;99.90;;;;;;5073067;28;20228;-81
2023/04/21 08:18:30;;;;;;;4.82;4.40;;;18.40;99.90;;;;;;5073156;28;20228;-80
2023/04/21 08:21:00;;;;;;;4.55;4.15;;;18.80;99.90;;;;;;5072948;28;20205;-80
2023/04/21 08:23:29;;;;;;;8.60;4.13;;;19.20;99.90;;;;;;5072032;28;20343;-81
2023/04/21 08:25:59;;;;;;;8.27;4.13;;;19.20;99.90;;;;;;5072273;28;20197;-80
2023/04/21 08:28:27;;;;;;;7.22;4.40;;;19.30;99.90;;;;;;5072120;28;20192;-80
2023/04/21 08:30:56;;;;;;;4.93;4.15;;;19.50;99.90;;;;;;5071960;28;20201;-81
2023/04/21 08:33:24;;;;;;;6.90;5.03;;;19.60;99.90;;;;;;5072371;28;20224;-81
2023/04/21 08:35:52;;;;;;;6.25;4.80;;;20.10;99.80;;;;;;5072444;28;20212;-81
2023/04/21 08:38:45;;;;;;;8.50;4.68;;;20.60;98.50;;;;;;5072364;28;20228;-81
2023/04/21 08:41:35;;;;;;;6.50;4.05;;;21.30;95.00;;;;;;5071125;28;20209;-81
2023/04/21 08:44:03;;;;;;;4.65;4.13;;;21.30;93.80;;;;;;5071887;28;20204;-81
2023/04/21 08:46:32;;;;;;;12.57;4.22;;;21.20;91.20;;;;;;5071954;28;20212;-81
2023/04/21 08:49:01;;;;;;;4.20;3.55;;;21.10;90.00;;;;;;5071696;28;20194;-80
2023/04/21 08:51:30;;;;;;;5.50;3.90;;;20.90;91.20;;;;;;5072387;28;20201;-81
2023/04/21 08:54:00;;;;;;;6.00;4.40;;;20.90;91.20;;;;;;5071371;28;20213;-81
2023/04/21 08:56:28;;;;;;;5.90;4.35;;;20.80;91.00;;;;;;5072227;28;20205;-81
2023/04/21 08:58:56;;;;;;;10.13;3.97;;;21.00;91.50;;;;;;5072058;28;20220;-81
2023/04/21 09:01:25;;;;;;;5.15;3.90;;;21.10;90.90;;;;;;5072222;28;20292;-81
2023/04/21 09:03:53;;;;;;;6.53;4.55;;;21.00;92.00;;;;;;5071774;28;20301;-82
2023/04/21 09:06:30;;;;;;;5.88;4.35;;;21.20;92.50;;;;;;5074559;28;20215;-80
2023/04/21 09:09:04;;;;;;;6.32;3.30;;;21.40;91.90;;;;;;5069112;28;20220;-80
2023/04/21 09:11:33;;;;;;;10.05;4.28;;;21.80;91.80;;;;;;5060511;28;20216;-80
2023/04/21 09:14:01;;;;;;;6.45;4.00;;;22.30;91.20;;;;;;5056158;28;20255;-80
2023/04/21 09:16:33;;;;;;;7.40;4.32;;;22.70;89.70;;;;;;5058723;28;20193;-80
2023/04/21 09:19:02;;;;;;;7.03;4.55;;;22.80;86.90;;;;;;5059780;28;20257;-80
2023/04/21 09:21:44;;;;;;;5.80;3.78;;;23.00;84.20;;;;;;5069896;28;20208;-80
2023/04/21 09:24:14;;;;;;;6.28;4.03;;;23.10;83.60;;;;;;5076069;28;20209;-80
2023/04/21 09:30:09;;;;;;;4.20;3.80;;;23.00;82.10;;;;;;5037534;28;20229;-81
2023/04/21 09:32:38;;;;;;;21.10;4.65;;;22.90;82.40;;;;;;5075587;28;20284;-80
2023/04/21 09:35:09;;;;;;;4.85;4.20;;;23.10;81.60;;;;;;5075527;28;20205;-81
2023/04/21 09:37:38;;;;;;;6.53;4.15;;;23.10;81.90;;;;;;5065370;28;20292;-80
2023/04/21 09:40:08;;;;;;;5.55;4.10;;;23.10;81.20;;;;;;5075027;28;20256;-81
2023/04/21 09:42:36;;;;;;;4.40;3.88;;;22.80;81.30;;;;;;5075295;28;20209;-81
2023/04/21 09:45:18;;;;;;;5.20;4.00;;;22.60;81.50;;;;;;5074776;28;20255;-81
2023/04/21 09:47:51;;;;;;;3.85;3.47;;;22.20;81.00;;;;;;5075980;28;20207;-80
2023/04/21 09:50:21;;;;;;;4.45;3.55;;;21.90;82.30;;;;;;5075570;28;20201;-81
2023/04/21 09:53:16;;;;;;;9.77;3.65;;;21.20;80.60;;;;;;5055006;28;20283;-81
2023/04/21 09:55:51;;;;;;;9.75;4.13;;;21.10;82.10;;;;;;5054911;28;20205;-81
2023/04/21 09:58:27;;;;;;;8.00;3.60;;;21.20;82.50;;;;;;5055799;28;20205;-80
2023/04/21 10:00:57;;;;;;;14.68;3.75;;;21.50;83.00;;;;;;5058155;28;20199;-81
2023/04/21 10:03:29;;;;;;;5.55;3.78;;;22.50;80.00;;;;;;5075047;28;20239;-81
2023/04/21 10:06:03;;;;;;;4.45;3.47;;;23.20;78.60;;;;;;5074778;28;20208;-80
2023/04/21 10:08:32;;;;;;;6.32;3.75;;;23.70;73.80;;;;;;5075117;28;20205;-81
2023/04/21 10:11:04;;;;;;;6.20;3.72;;;23.80;73.40;;;;;;5075259;28;20208;-80
2023/04/21 10:13:35;;;;;;;5.35;3.72;;;24.10;74.40;;;;;;5075128;28;20220;-80
2023/04/21 10:16:06;;;;;;;4.80;3.63;;;24.50;72.60;;;;;;5075453;28;20207;-81
2023/04/21 10:18:37;;;;;;;9.00;3.10;;;25.00;70.80;;;;;;5074795;28;20197;-81
2023/04/21 10:21:07;;;;;;;4.40;2.90;;;25.10;70.80;;;;;;5072143;28;20201;-81
2023/04/21 10:23:41;;;;;;;11.45;3.70;;;24.90;69.20;;;;;;5074477;28;20334;-76
2023/04/21 10:26:14;;;;;;;4.97;3.63;;;24.90;71.10;;;;;;5073715;28;20205;-76
2023/04/21 10:28:47;;;;;;;4.38;3.60;;;25.20;70.00;;;;;;5074949;28;20213;-76
2023/04/21 10:31:20;;;;;;;15.85;3.63;;;25.50;69.80;;;;;;5075006;28;20216;-77
2023/04/21 10:34:20;;;;;;;9.10;3.28;;;25.60;66.90;;;;;;5074678;28;20285;-76
2023/04/21 10:37:14;;;;;;;3.50;3.20;;;25.10;63.40;;;;;;5074818;28;20292;-76
2023/04/21 10:40:00;;;;;;;4.72;2.97;;;25.10;64.90;;;;;;5074928;28;20200;-76
2023/04/21 10:42:35;;;;;;;6.38;3.20;;;24.50;63.90;;;;;;5074037;28;20276;-72
2023/04/21 10:45:13;;;;;;;5.82;3.53;;;24.50;63.10;;;;;;5074998;28;20204;-78
2023/04/21 10:47:52;;;;;;;4.32;2.75;;;24.80;65.90;;;;;;5074616;28;20215;-75
2023/04/21 10:50:25;;;;;;;3.92;3.50;;;25.20;67.40;;;;;;5074386;28;20270;-80
2023/04/21 10:52:59;;;;;;;4.53;3.10;;;25.60;63.30;;;;;;5074421;28;20229;-80
2023/04/21 10:55:29;;;;;;;7.18;3.40;;;25.80;67.20;;;;;;5070145;28;20260;-78
2023/04/21 10:58:03;;;;;;;5.85;3.72;;;25.90;61.80;;;;;;5074502;28;20201;-77
2023/04/21 11:00:32;;;;;;;2.67;2.42;;;26.10;61.60;;;;;;5067089;28;20208;-75
2023/04/21 11:03:02;;;;;;;5.00;3.03;;;26.20;63.80;;;;;;5054086;28;20226;-72
2023/04/21 11:05:37;;;;;;;5.50;3.42;;;26.30;63.00;;;;;;5065905;28;20207;-77
2023/04/21 11:08:13;;;;;;;5.03;3.47;;;25.90;61.20;;;;;;5074392;28;20243;-77
2023/04/21 11:11:00;;;;;;;6.85;3.45;;;25.60;62.30;;;;;;5073837;28;20205;-77
2023/04/21 11:13:33;;;;;;;4.90;3.17;;;25.70;63.60;;;;;;5073991;28;20212;-77
2023/04/21 11:16:04;;;;;;;4.05;2.80;;;25.80;64.20;;;;;;5074033;28;20285;-78
2023/04/21 11:18:40;;;;;;;4.78;3.10;;;25.60;60.00;;;;;;5073409;28;20335;-77
2023/04/21 11:21:16;;;;;;;3.85;3.33;;;25.30;60.90;;;;;;5074090;28;20209;-77
2023/04/21 11:23:53;;;;;;;3.10;2.70;;;25.50;62.50;;;;;;5069354;28;20252;-78
2023/04/21 11:26:31;;;;;;;3.17;2.67;;;25.70;60.70;;;;;;5069669;28;20207;-76
2023/04/21 11:29:06;;;;;;;4.75;3.90;;;25.50;58.10;;;;;;5073359;28;20193;-78
2023/04/21 11:31:35;;;;;;;3.45;3.15;;;25.60;58.90;;;;;;5072916;28;20201;-76
2023/04/21 11:34:05;;;;;;;4.07;2.90;;;25.90;59.10;;;;;;5073598;28;20211;-76
2023/04/21 11:36:34;;;;;;;4.55;3.42;;;26.40;58.20;;;;;;5073881;28;20292;-76
2023/04/21 11:39:06;;;;;;;10.23;2.78;;;26.50;58.00;;;;;;5073467;28;20208;-76
2023/04/21 11:41:35;;;;;;;4.35;3.13;;;26.60;57.40;;;;;;5073236;28;20213;-76
2023/04/21 11:44:05;;;;;;;4.32;3.38;;;26.70;56.50;;;;;;5073031;28;20248;-76
2023/04/21 11:46:35;;;;;;;5.82;3.00;;;26.70;56.30;;;;;;5073384;28;20223;-76
2023/04/21 11:49:05;;;;;;;3.22;2.88;;;26.70;53.40;;;;;;5073647;28;20227;-76
2023/04/21 11:51:35;;;;;;;4.55;2.78;;;26.70;53.60;;;;;;5073300;28;20244;-76
2023/04/21 11:54:05;;;;;;;5.65;2.75;;;26.70;53.20;;;;;;5073114;28;20224;-76
2023/04/21 11:56:36;;;;;;;6.88;3.00;;;26.30;53.10;;;;;;5073178;28;20226;-76
2023/04/21 11:59:09;;;;;;;2.83;2.53;;;25.80;52.30;;;;;;5073238;28;20222;-76
2023/04/21 12:01:43;;;;;;;3.67;3.05;;;25.50;52.90;;;;;;5072801;28;20218;-76
2023/04/21 12:04:14;;;;;;;4.00;3.10;;;25.70;53.30;;;;;;5073354;28;20220;-76
2023/04/21 12:06:44;;;;;;;3.55;2.92;;;25.90;52.90;;;;;;5073348;28;20205;-75
2023/04/21 12:09:18;;;;;;;3.00;2.70;;;26.00;50.00;;;;;;5073320;28;20235;-76
2023/04/21 12:11:49;;;;;;;3.58;3.28;;;26.00;50.60;;;;;;5072260;28;20245;-76
2023/04/21 12:14:20;;;;;;;4.20;2.90;;;26.10;50.50;;;;;;5072488;28;20208;-76
2023/04/21 12:16:50;;;;;;;7.72;3.05;;;26.30;51.60;;;;;;5070166;28;20211;-76
2023/04/21 12:19:25;;;;;;;4.47;3.00;;;26.20;51.10;;;;;;5073118;28;20273;-76
2023/04/21 12:21:55;;;;;;;4.90;3.10;;;26.00;47.70;;;;;;5072632;28;20356;-76
2023/04/21 12:24:23;;;;;;;3.42;2.83;;;25.80;49.50;;;;;;5072716;28;20221;-76
2023/04/21 12:26:52;;;;;;;3.00;2.40;;;25.70;49.50;;;;;;5072849;28;20272;-76
2023/04/21 12:29:21;;;;;;;5.32;2.90;;;25.80;49.70;;;;;;5072604;28;20220;-76
2023/04/21 12:31:49;;;;;;;3.90;3.08;;;25.80;47.80;;;;;;5072261;28;20216;-76
2023/04/21 12:34:18;;;;;;;6.82;2.88;;;25.40;49.40;;;;;;5072803;28;20215;-76
2023/04/21 12:36:46;;;;;;;4.93;2.75;;;25.40;48.00;;;;;;5072448;28;20205;-76
2023/04/21 12:39:16;;;;;;;3.25;2.55;;;25.40;49.90;;;;;;5071645;28;20201;-77
2023/04/21 12:41:44;;;;;;;4.75;3.33;;;25.50;52.20;;;;;;5066840;28;20496;-78
2023/04/21 12:44:12;;;;;;;6.03;3.45;;;25.70;50.60;;;;;;5073169;28;20207;-79
2023/04/21 12:46:42;;;;;;;10.13;3.05;;;25.80;48.70;;;;;;5072809;28;20203;-86
2023/04/21 12:49:10;;;;;;;3.08;2.45;;;25.20;49.60;;;;;;5072838;28;20315;-85
2023/04/21 12:51:39;;;;;;;4.85;2.92;;;24.90;49.70;;;;;;5071928;28;20233;-86
2023/04/21 12:54:07;;;;;;;3.78;2.72;;;25.10;48.30;;;;;;5072486;28;20208;-85
2023/04/21 12:56:35;;;;;;;5.03;2.72;;;25.20;48.70;;;;;;5072103;28;20205;-85
2023/04/21 12:59:03;;;;;;;4.65;2.72;;;25.20;49.50;;;;;;5072352;28;20203;-85
2023/04/21 13:01:32;;;;;;;11.75;3.50;;;25.00;48.30;;;;;;5072565;28;20197;-86